Time;durP1;ratioP1;P1;durP2;ratioP2;P2;SDS_P1;SDS_P2;PMS_P1;PMS_P2;Temp;Humidity;BMP_temperature;BMP_pressure;BME280_temperature;BME280_humidity;BME280_pressure;Samples;Min_cycle;Max_cycle;Signal;HPM_P1;HPM_P2
2022/10/06 00:00:29;;;;;;;;;3.00;0.25;;;;;18.29;50.84;102194.03;5020785;28;45415;-55
2022/10/06 00:02:54;;;;;;;;;1.25;0.00;;;;;18.25;50.67;102186.16;5020704;28;45327;-55
2022/10/06 00:05:20;;;;;;;;;1.00;0.75;;;;;18.22;50.87;102196.91;5024204;28;45292;-55
2022/10/06 00:07:45;;;;;;;;;2.00;0.00;;;;;18.19;51.03;102204.03;5024878;28;45495;-55
2022/10/06 00:10:11;;;;;;;;;1.75;1.50;;;;;18.15;50.77;102210.34;5020694;28;46211;-55
2022/10/06 00:12:40;;;;;;;;;3.25;0.00;;;;;18.15;50.77;102217.41;5020420;28;45324;-57
2022/10/06 00:15:06;;;;;;;;;2.75;0.25;;;;;18.12;51.08;102223.69;5020899;28;45292;-55
2022/10/06 00:17:32;;;;;;;;;1.50;1.00;;;;;18.10;51.22;102225.53;5019896;28;45343;-51
2022/10/06 00:19:57;;;;;;;;;3.25;1.50;;;;;18.09;50.92;102223.78;5020329;28;45289;-54
2022/10/06 00:22:22;;;;;;;;;2.75;1.00;;;;;18.07;50.93;102217.59;5020151;28;45245;-54
2022/10/06 00:24:48;;;;;;;;;4.00;1.00;;;;;18.04;51.07;102228.31;5020708;28;45369;-53
2022/10/06 00:27:13;;;;;;;;;1.75;0.25;;;;;17.98;51.03;102234.63;5020153;28;45582;-57
2022/10/06 00:29:41;;;;;;;;;3.00;1.25;;;;;17.96;50.89;102238.22;5020163;28;46286;-54
2022/10/06 00:32:08;;;;;;;;;1.50;1.25;;;;;17.92;51.06;102236.53;5020262;28;45423;-55
2022/10/06 00:34:35;;;;;;;;;2.00;1.50;;;;;17.90;51.00;102248.97;5018976;28;45283;-55
2022/10/06 00:37:01;;;;;;;;;3.00;1.00;;;;;17.86;50.85;102250.81;5019427;28;45258;-55
2022/10/06 00:39:27;;;;;;;;;3.25;0.50;;;;;17.85;51.03;102251.75;5019484;28;45904;-55
2022/10/06 00:41:52;;;;;;;;;1.75;0.75;;;;;17.83;50.94;102257.06;5018498;28;45380;-55
2022/10/06 00:44:17;;;;;;;;;3.50;1.00;;;;;17.79;51.10;102266.03;5020106;28;45383;-55
2022/10/06 00:46:51;;;;;;;;;3.25;1.00;;;;;17.77;51.05;102270.47;5019764;28;45320;-55
2022/10/06 00:49:29;;;;;;;;;1.75;1.75;;;;;17.75;50.95;102266.09;5019953;28;46240;-55
2022/10/06 00:52:00;;;;;;;;;2.00;1.00;;;;;17.71;51.19;102265.31;5019583;28;45268;-56
2022/10/06 00:54:26;;;;;;;;;1.75;1.25;;;;;17.69;51.02;102267.13;5019535;28;45257;-58
2022/10/06 00:56:52;;;;;;;;;3.25;2.00;;;;;17.66;51.14;102265.41;5019563;28;45250;-55
2022/10/06 00:59:18;;;;;;;;;5.00;2.00;;;;;17.65;51.03;102265.44;5019508;28;45427;-56
2022/10/06 01:01:54;;;;;;;;;2.50;1.00;;;;;17.62;51.06;102277.00;5019712;28;45429;-55
2022/10/06 01:04:21;;;;;;;;;5.75;0.75;;;;;17.59;51.30;102281.50;5018396;28;45426;-55
2022/10/06 01:06:53;;;;;;;;;1.50;1.00;;;;;17.58;51.19;102280.59;5028751;28;45446;-55
2022/10/06 01:09:21;;;;;;;;;1.50;0.75;;;;;17.53;51.16;102283.38;5034135;28;46255;-56
2022/10/06 01:11:49;;;;;;;;;2.25;0.00;;;;;17.52;51.52;102286.03;5039700;28;45322;-55
2022/10/06 01:14:16;;;;;;;;;1.00;1.00;;;;;17.50;51.11;102285.22;5039453;28;45518;-55
2022/10/06 01:16:45;;;;;;;;;4.50;3.00;;;;;17.46;51.12;102292.38;5041174;28;45426;-55
2022/10/06 01:19:23;;;;;;;;;2.25;2.00;;;;;17.46;51.04;102303.00;5042774;28;45384;-55
2022/10/06 01:21:51;;;;;;;;;3.00;1.75;;;;;17.42;51.44;102292.44;5042898;28;45296;-55
2022/10/06 01:24:17;;;;;;;;;3.50;1.00;;;;;17.39;50.92;102293.38;5042965;28;45244;-55
2022/10/06 01:26:48;;;;;;;;;1.50;1.00;;;;;17.37;51.33;102303.13;5042905;28;45366;-55
2022/10/06 01:29:13;;;;;;;;;2.75;1.00;;;;;17.37;51.37;102309.34;5042549;28;46936;-55
2022/10/06 01:31:39;;;;;;;;;3.00;2.50;;;;;17.32;51.01;102303.25;5042953;28;45275;-55
2022/10/06 01:34:04;;;;;;;;;2.00;0.75;;;;;17.32;51.20;102300.59;5042910;28;45457;-56
2022/10/06 01:36:29;;;;;;;;;2.75;1.50;;;;;17.30;51.28;102304.19;5042651;28;45439;-55
2022/10/06 01:38:55;;;;;;;;;2.75;0.25;;;;;17.26;51.36;102307.75;5042497;28;46049;-56
2022/10/06 01:41:21;;;;;;;;;2.50;1.25;;;;;17.26;51.37;102315.72;5042898;28;45276;-55
2022/10/06 01:43:46;;;;;;;;;1.25;0.50;;;;;17.22;51.33;102310.50;5042728;28;45478;-55
2022/10/06 01:46:12;;;;;;;;;3.00;1.50;;;;;17.23;51.17;102311.34;5042614;28;45520;-55
2022/10/06 01:48:37;;;;;;;;;3.75;2.00;;;;;17.21;51.25;102308.72;5042477;28;46126;-56
2022/10/06 01:51:02;;;;;;;;;1.25;1.25;;;;;17.20;51.30;102314.06;5042681;28;45182;-55
2022/10/06 01:53:28;;;;;;;;;5.25;2.75;;;;;17.18;51.20;102314.09;5042716;28;45285;-55
2022/10/06 01:55:58;;;;;;;;;3.00;1.75;;;;;17.17;51.19;102315.00;5042559;28;45522;-55
2022/10/06 01:58:23;;;;;;;;;1.50;0.25;;;;;17.15;51.41;102316.81;5042295;28;46096;-55
2022/10/06 02:00:49;;;;;;;;;2.25;1.25;;;;;17.11;51.45;102315.09;5042261;28;45279;-55
2022/10/06 02:03:15;;;;;;;;;2.25;1.00;;;;;17.11;51.38;102322.22;5042438;28;45442;-56
2022/10/06 02:05:40;;;;;;;;;3.00;1.50;;;;;17.09;51.34;102324.00;5039410;28;45453;-55
2022/10/06 02:08:08;;;;;;;;;3.00;1.25;;;;;17.07;51.14;102324.03;5023893;28;46331;-54
2022/10/06 02:10:33;;;;;;;;;5.25;2.00;;;;;17.05;51.29;102331.13;5021945;28;45285;-55
2022/10/06 02:12:59;;;;;;;;;4.75;2.25;;;;;17.02;51.31;102332.06;5022203;28;45320;-56
2022/10/06 02:15:25;;;;;;;;;1.75;1.25;;;;;17.00;51.19;102330.34;5022275;28;45546;-55
2022/10/06 02:17:52;;;;;;;;;1.50;1.00;;;;;16.98;51.27;102324.16;5022115;28;47083;-55
2022/10/06 02:20:17;;;;;;;;;3.00;2.00;;;;;16.97;51.15;102333.06;5021929;28;45336;-56
2022/10/06 02:22:43;;;;;;;;;4.25;2.25;;;;;16.95;51.39;102341.03;5022363;28;45272;-55
2022/10/06 02:25:10;;;;;;;;;2.75;1.75;;;;;16.95;51.16;102334.84;5022199;28;45554;-55
2022/10/06 02:27:36;;;;;;;;;2.00;2.00;;;;;16.95;51.43;102348.13;5019586;28;45286;-56
2022/10/06 02:30:04;;;;;;;;;2.25;2.00;;;;;16.90;51.17;102348.16;5021971;28;45241;-55
2022/10/06 02:32:38;;;;;;;;;2.50;2.25;;;;;16.90;51.40;102345.50;5022064;28;45312;-55
2022/10/06 02:35:05;;;;;;;;;3.00;2.00;;;;;16.85;51.39;102342.03;5021570;28;45498;-55
2022/10/06 02:37:30;;;;;;;;;3.25;2.00;;;;;16.86;51.25;102349.97;5019949;28;46175;-55
2022/10/06 02:39:56;;;;;;;;;11.00;2.50;;;;;16.83;51.24;102354.44;5020451;28;45431;-56
2022/10/06 02:42:21;;;;;;;;;1.25;1.00;;;;;16.83;51.15;102358.00;5020646;28;45854;-56
2022/10/06 02:44:48;;;;;;;;;3.00;2.25;;;;;16.82;51.20;102358.88;5021689;28;45490;-56
2022/10/06 02:47:14;;;;;;;;;1.50;0.50;;;;;16.82;51.29;102358.03;5021655;28;46325;-54
2022/10/06 02:49:40;;;;;;;;;3.00;0.75;;;;;16.79;51.50;102358.94;5021149;28;45262;-56
2022/10/06 02:52:05;;;;;;;;;3.25;1.25;;;;;16.75;51.47;102357.22;5020316;28;45517;-56
2022/10/06 02:54:31;;;;;;;;;2.00;2.00;;;;;16.77;51.22;102371.34;5021607;28;45193;-56
2022/10/06 02:56:57;;;;;;;;;2.50;2.00;;;;;16.75;51.26;102365.19;5021089;28;45338;-56
2022/10/06 02:59:22;;;;;;;;;2.50;1.00;;;;;16.75;51.14;102367.84;5021437;28;45189;-55
2022/10/06 03:01:47;;;;;;;;;4.75;2.00;;;;;16.71;51.43;102371.44;5021670;28;45241;-56
2022/10/06 03:04:13;;;;;;;;;1.50;1.00;;;;;16.71;51.27;102376.75;5020294;28;45319;-54
2022/10/06 03:06:38;;;;;;;;;3.25;2.00;;;;;16.67;51.02;102367.94;5030261;28;46040;-56
2022/10/06 03:09:07;;;;;;;;;3.00;1.50;;;;;16.67;51.40;102367.94;5021095;28;45495;-55
2022/10/06 03:11:35;;;;;;;;;5.75;3.50;;;;;16.67;51.26;102380.34;5021594;28;45407;-56
2022/10/06 03:14:01;;;;;;;;;5.75;2.75;;;;;16.65;51.31;102383.00;5021049;28;45489;-55
2022/10/06 03:16:32;;;;;;;;;3.50;3.00;;;;;16.63;51.29;102378.63;5021208;28;45596;-55
2022/10/06 03:18:59;;;;;;;;;4.00;1.00;;;;;16.61;51.27;102388.41;5021017;28;45260;-55
2022/10/06 03:21:29;;;;;;;;;1.75;1.75;;;;;16.60;51.42;102394.59;5019920;28;45329;-55
2022/10/06 03:23:57;;;;;;;;;3.75;1.00;;;;;16.57;50.99;102391.06;5021148;28;45273;-55
2022/10/06 03:26:28;;;;;;;;;4.25;1.75;;;;;16.56;51.33;102394.66;5021114;28;45380;-55
2022/10/06 03:28:55;;;;;;;;;3.00;2.75;;;;;16.54;51.08;102393.78;5020874;28;45325;-54
2022/10/06 03:31:21;;;;;;;;;3.75;2.00;;;;;16.54;51.04;102401.75;5021412;28;45262;-56
2022/10/06 03:33:46;;;;;;;;;3.00;0.25;;;;;16.51;51.45;102395.59;5020965;28;45300;-56
2022/10/06 03:36:18;;;;;;;;;11.25;11.25;;;;;16.49;51.20;102403.59;5020757;28;46061;-55
2022/10/06 03:38:43;;;;;;;;;2.00;1.00;;;;;16.47;51.41;102408.03;5020872;28;45303;-56
2022/10/06 03:41:10;;;;;;;;;3.00;2.00;;;;;16.45;51.43;102412.44;5021222;28;45319;-57
2022/10/06 03:43:37;;;;;;;;;3.00;0.75;;;;;16.40;51.08;102420.50;5020967;28;45480;-56
2022/10/06 03:46:04;;;;;;;;;1.25;1.00;;;;;16.40;51.22;102425.78;5019581;28;45389;-56
2022/10/06 03:48:34;;;;;;;;;3.75;1.25;;;;;16.35;50.87;102422.31;5019046;28;45827;-56
2022/10/06 03:51:03;;;;;;;;;3.50;1.50;;;;;16.33;51.19;102431.19;5020640;28;45472;-55
2022/10/06 03:53:30;;;;;;;;;3.75;2.75;;;;;16.31;51.34;102435.63;5020731;28;45234;-56
2022/10/06 03:56:28;;;;;;;;;2.00;2.00;;;;;16.29;51.02;102442.72;5020435;28;45281;-55
2022/10/06 03:58:58;;;;;;;;;3.50;2.00;;;;;16.26;51.30;102443.63;5009727;28;45319;-56
2022/10/06 04:01:29;;;;;;;;;3.50;2.50;;;;;16.25;51.39;102449.81;5020695;28;45194;-55
2022/10/06 04:03:56;;;;;;;;;5.00;4.00;;;;;16.23;51.17;102449.84;5020777;28;45258;-56
2022/10/06 04:06:23;;;;;;;;;2.75;2.75;;;;;16.22;51.41;102449.88;5029610;28;45497;-56
2022/10/06 04:08:50;;;;;;;;;6.25;2.00;;;;;16.20;51.49;102451.66;5020421;28;45179;-56
2022/10/06 04:11:21;;;;;;;;;10.25;2.75;;;;;16.19;51.01;102465.84;5020402;28;45329;-55
2022/10/06 04:13:50;;;;;;;;;3.75;0.75;;;;;16.16;51.08;102465.84;5018913;28;45651;-55
2022/10/06 04:16:22;;;;;;;;;5.75;4.00;;;;;16.16;51.15;102468.50;5019648;28;46497;-55
2022/10/06 04:18:49;;;;;;;;;1.75;0.75;;;;;16.13;51.12;102474.72;5020099;28;45329;-54
2022/10/06 04:21:15;;;;;;;;;3.00;2.50;;;;;16.08;51.39;102469.44;5020201;28;45377;-55
2022/10/06 04:23:41;;;;;;;;;4.50;2.00;;;;;16.10;51.18;102472.09;5020261;28;45240;-57
2022/10/06 04:26:16;;;;;;;;;4.00;2.00;;;;;16.08;51.23;102468.56;5018789;28;46623;-56
2022/10/06 04:28:43;;;;;;;;;4.50;2.75;;;;;16.04;50.96;102459.78;5020013;28;45279;-56
2022/10/06 04:31:13;;;;;;;;;5.25;2.75;;;;;16.06;51.05;102476.56;5019195;28;45360;-57
2022/10/06 04:33:39;;;;;;;;;3.00;2.50;;;;;16.04;51.30;102480.97;5020119;28;45163;-57
2022/10/06 04:36:06;;;;;;;;;5.00;3.25;;;;;16.03;51.25;102483.66;5019839;28;45216;-57
2022/10/06 04:38:33;;;;;;;;;2.00;2.00;;;;;16.00;51.09;102487.22;5020111;28;45173;-57
2022/10/06 04:41:05;;;;;;;;;6.25;5.50;;;;;15.99;51.02;102488.09;5020280;28;45352;-57
2022/10/06 04:43:32;;;;;;;;;4.75;4.25;;;;;15.98;51.38;102485.47;5019870;28;45177;-56
2022/10/06 04:45:58;;;;;;;;;4.75;4.00;;;;;15.93;51.09;102485.50;5019821;28;45337;-56
2022/10/06 04:48:25;;;;;;;;;4.25;3.50;;;;;15.96;51.04;102497.84;5019932;28;45337;-56
2022/10/06 04:51:06;;;;;;;;;5.75;3.75;;;;;15.93;51.25;102490.81;5019244;28;45320;-57
2022/10/06 04:53:32;;;;;;;;;2.00;2.00;;;;;15.91;51.41;102497.88;5019865;28;45242;-56
2022/10/06 04:56:09;;;;;;;;;7.00;4.50;;;;;15.90;51.22;102499.66;5019845;28;45252;-56
2022/10/06 04:58:38;;;;;;;;;2.00;1.50;;;;;15.87;51.14;102491.75;5019757;28;45495;-56
2022/10/06 05:01:11;;;;;;;;;1.75;1.75;;;;;15.85;51.31;102487.38;5019420;28;45442;-57
2022/10/06 05:03:37;;;;;;;;;4.25;4.25;;;;;15.85;51.25;102497.97;5023463;28;45864;-56
2022/10/06 05:06:04;;;;;;;;;7.25;3.00;;;;;15.83;51.54;102499.75;5028518;28;47043;-57
2022/10/06 05:08:30;;;;;;;;;6.75;4.00;;;;;15.79;51.67;102497.97;5019676;28;45253;-54
2022/10/06 05:11:05;;;;;;;;;6.50;4.00;;;;;15.76;51.59;102491.81;5019845;28;45298;-56
2022/10/06 05:13:31;;;;;;;;;7.25;2.75;;;;;15.75;51.94;102497.13;5019708;28;45354;-57
2022/10/06 05:15:58;;;;;;;;;5.75;4.25;;;;;15.76;51.63;102498.88;5019340;28;45746;-57
2022/10/06 05:18:24;;;;;;;;;2.50;1.50;;;;;15.75;51.55;102503.28;5018847;28;45470;-56
2022/10/06 05:21:06;;;;;;;;;7.75;2.25;;;;;15.74;51.38;102508.63;5019259;28;45564;-57
2022/10/06 05:23:35;;;;;;;;;8.75;3.50;;;;;15.73;51.34;102515.66;5019553;28;45350;-57
2022/10/06 05:26:01;;;;;;;;;9.75;4.25;;;;;15.71;51.78;102505.97;5019221;28;45320;-56
2022/10/06 05:28:29;;;;;;;;;6.00;4.75;;;;;15.69;51.82;102508.63;5017892;28;45348;-57
2022/10/06 05:30:58;;;;;;;;;7.00;2.75;;;;;15.71;51.57;102508.63;5019348;28;45287;-58
2022/10/06 05:33:25;;;;;;;;;4.75;2.75;;;;;15.69;51.56;102513.94;5019442;28;45263;-58
2022/10/06 05:36:02;;;;;;;;;5.25;4.25;;;;;15.66;51.49;102506.03;5018727;28;45360;-57
2022/10/06 05:38:28;;;;;;;;;10.00;7.50;;;;;15.67;51.34;102522.78;5018953;28;45277;-56
2022/10/06 05:41:01;;;;;;;;;4.25;4.25;;;;;15.67;51.76;102529.00;5019534;28;45237;-57
2022/10/06 05:43:26;;;;;;;;;8.50;4.25;;;;;15.67;51.79;102520.13;5018959;28;45455;-58
2022/10/06 05:45:53;;;;;;;;;7.50;2.25;;;;;15.66;51.68;102531.63;5019061;28;46159;-57
2022/10/06 05:48:19;;;;;;;;;6.00;4.00;;;;;15.67;51.93;102534.28;5012091;28;45329;-56
2022/10/06 05:50:44;;;;;;;;;4.00;2.75;;;;;15.66;51.84;102536.94;5010770;28;45353;-57
2022/10/06 05:53:09;;;;;;;;;5.25;3.50;;;;;15.64;51.47;102544.03;5009453;28;45545;-58
2022/10/06 05:55:35;;;;;;;;;6.00;3.50;;;;;15.62;51.85;102549.31;5010307;28;45293;-56
2022/10/06 05:58:01;;;;;;;;;3.75;3.00;;;;;15.61;51.89;102550.22;5018357;28;45219;-55
2022/10/06 06:00:26;;;;;;;;;10.50;5.25;;;;;15.51;51.89;102529.97;5018986;28;45241;-58
2022/10/06 06:02:51;;;;;;;;;8.75;4.25;;;;;15.58;51.99;102545.84;5018923;28;45210;-58
2022/10/06 06:05:17;;;;;;;;;3.00;2.50;;;;;15.56;52.04;102542.31;5020109;28;45270;-59
2022/10/06 06:07:42;;;;;;;;;6.00;3.00;;;;;15.54;51.76;102544.06;5013677;28;45238;-58
2022/10/06 06:10:08;;;;;;;;;10.75;6.00;;;;;15.53;51.78;102544.94;5022293;28;45511;-56
2022/10/06 06:12:33;;;;;;;;;4.50;4.25;;;;;15.52;51.72;102547.63;5021564;28;45336;-61
2022/10/06 06:17:56;;;;;;;;;5.75;4.00;;;;;15.43;52.00;102554.75;4987314;28;45523;-58
2022/10/06 06:20:21;;;;;;;;;10.50;7.75;;;;;15.47;52.11;102554.72;5021384;28;45495;-58
2022/10/06 06:22:51;;;;;;;;;22.75;17.50;;;;;15.43;51.92;102557.41;5017193;28;45463;-58
2022/10/06 06:25:17;;;;;;;;;9.25;5.75;;;;;15.44;52.12;102558.28;5021204;28;45361;-57
2022/10/06 06:27:42;;;;;;;;;6.00;4.75;;;;;15.41;51.90;102560.94;5025480;28;45185;-59
2022/10/06 06:30:08;;;;;;;;;5.25;5.25;;;;;15.42;51.72;102566.22;5021901;28;45406;-58
2022/10/06 06:32:33;;;;;;;;;6.00;4.50;;;;;15.41;51.71;102574.19;5021410;28;45514;-58
2022/10/06 06:34:59;;;;;;;;;5.75;4.50;;;;;15.41;52.33;102574.19;5021306;28;46258;-66
2022/10/06 06:37:24;;;;;;;;;12.25;7.50;;;;;15.40;52.14;102578.59;5021457;28;45265;-60
2022/10/06 06:39:49;;;;;;;;;6.25;3.50;;;;;15.38;51.82;102575.09;5021744;28;45400;-53
2022/10/06 06:42:15;;;;;;;;;10.25;8.25;;;;;15.39;52.15;102581.25;5016200;28;45423;-53
2022/10/06 06:44:40;;;;;;;;;6.75;5.25;;;;;15.36;52.21;102576.00;5039370;28;45378;-54
2022/10/06 06:47:06;;;;;;;;;6.25;6.25;;;;;15.35;52.37;102588.34;5040963;28;45354;-54
2022/10/06 06:49:32;;;;;;;;;20.75;17.25;;;;;15.36;52.47;102591.88;5012427;28;45481;-50
2022/10/06 06:51:57;;;;;;;;;21.00;19.75;;;;;15.36;52.34;102586.59;5021030;28;45402;-53
2022/10/06 06:54:23;;;;;;;;;20.25;14.00;;;;;15.34;51.92;102585.69;5021462;28;46026;-51
2022/10/06 06:56:48;;;;;;;;;6.25;4.50;;;;;15.32;52.24;102600.72;5014524;28;45253;-54
2022/10/06 06:59:14;;;;;;;;;11.00;7.75;;;;;15.33;52.48;102602.47;5031894;28;45299;-52
2022/10/06 07:01:46;;;;;;;;;10.00;6.00;;;;;15.33;52.24;102603.34;5024753;28;45407;-53
2022/10/06 07:04:14;;;;;;;;;7.50;5.75;;;;;15.33;52.46;102611.28;5020103;28;45477;-54
2022/10/06 07:06:40;;;;;;;;;8.25;5.00;;;;;15.32;52.33;102612.19;5021103;28;45274;-53
2022/10/06 07:09:07;;;;;;;;;5.50;4.00;;;;;15.31;52.29;102610.44;5021544;28;45313;-52
2022/10/06 07:11:34;;;;;;;;;8.50;3.25;;;;;15.29;52.21;102606.91;5021438;28;45246;-53
2022/10/06 07:14:13;;;;;;;;;7.00;5.50;;;;;15.30;52.05;102624.56;5020675;28;45424;-53
2022/10/06 07:25:07;;;;;;;;;7.25;5.50;;;;;15.31;52.49;102631.63;5021194;28;45362;-54
2022/10/06 07:27:44;;;;;;;;;11.75;7.50;;;;;15.32;52.43;102635.13;5020879;28;45249;-53
2022/10/06 07:30:17;;;;;;;;;11.50;8.25;;;;;15.33;52.22;102640.41;5021119;28;45392;-53
2022/10/06 07:32:44;;;;;;;;;7.25;6.75;;;;;15.35;52.37;102641.31;5020618;28;45248;-53
2022/10/06 07:35:09;;;;;;;;;8.50;6.50;;;;;15.38;52.26;102643.06;5020099;28;45365;-53
2022/10/06 07:37:35;;;;;;;;;9.00;6.75;;;;;15.39;52.14;102650.13;5020836;28;45283;-53
2022/10/06 07:40:01;;;;;;;;;10.25;6.75;;;;;15.43;52.63;102643.91;5021155;28;45262;-52
2022/10/06 07:42:26;;;;;;;;;5.25;4.25;;;;;15.44;52.42;102648.34;5020918;28;45612;-54
2022/10/06 07:47:38;;;;;;;;;10.00;5.50;;;;;15.47;52.62;102652.75;5021014;28;45399;-55
2022/10/06 07:50:06;;;;;;;;;13.00;7.50;;;;;15.47;52.55;102652.75;5020034;28;45249;-52
2022/10/06 07:52:35;;;;;;;;;9.50;5.25;;;;;15.52;52.26;102658.91;5020684;28;45174;-52
2022/10/06 07:55:00;;;;;;;;;11.25;7.25;;;;;15.54;52.50;102663.31;5019939;28;45365;-51
2022/10/06 07:57:33;;;;;;;;;10.50;7.00;;;;;15.58;52.52;102665.06;5020479;28;45380;-54
2022/10/06 07:59:58;;;;;;;;;7.25;6.00;;;;;15.62;52.37;102667.69;5023616;28;45270;-52
2022/10/06 08:02:25;;;;;;;;;8.25;7.00;;;;;15.64;52.30;102661.50;5028466;28;45335;-53
2022/10/06 08:04:51;;;;;;;;;9.50;8.50;;;;;15.68;52.51;102673.84;5020238;28;46288;-53
2022/10/06 08:07:16;;;;;;;;;3.00;3.00;;;;;15.72;52.34;102675.59;5018756;28;45337;-53
2022/10/06 08:09:41;;;;;;;;;8.75;6.25;;;;;15.76;52.40;102680.00;5019427;28;45369;-54
2022/10/06 08:14:51;;;;;;;;;7.75;6.50;;;;;15.74;52.54;102659.69;5020562;28;45372;-53
2022/10/06 08:17:16;;;;;;;;;7.75;4.50;;;;;15.86;52.27;102678.22;5019930;28;45238;-54
2022/10/06 08:19:42;;;;;;;;;14.25;7.50;;;;;15.93;52.12;102679.91;5020584;28;45746;-54
2022/10/06 08:22:09;;;;;;;;;6.25;4.25;;;;;15.97;52.61;102683.44;5020251;28;45324;-53
2022/10/06 08:24:35;;;;;;;;;5.25;3.25;;;;;16.02;52.29;102680.75;5020388;28;46234;-54
2022/10/06 08:27:00;;;;;;;;;5.75;4.00;;;;;16.06;52.36;102682.50;5019278;28;45229;-54
2022/10/06 08:29:25;;;;;;;;;9.75;5.00;;;;;16.12;52.39;102682.47;5020135;28;45153;-54
2022/10/06 08:31:51;;;;;;;;;8.25;6.00;;;;;16.17;52.34;102679.78;5019685;28;45356;-54
2022/10/06 08:34:17;;;;;;;;;6.00;4.00;;;;;16.21;52.23;102685.06;5020166;28;45316;-55
2022/10/06 08:36:43;;;;;;;;;10.50;5.25;;;;;16.28;52.25;102693.84;5019607;28;45369;-54
2022/10/06 08:39:08;;;;;;;;;4.00;4.00;;;;;16.36;52.35;102694.69;5018987;28;45453;-54
2022/10/06 08:41:47;;;;;;;;;8.75;6.00;;;;;16.42;52.55;102697.28;5020073;28;45331;-54
2022/10/06 08:44:18;;;;;;;;;5.25;3.50;;;;;16.50;52.64;102701.66;5018202;28;46351;-53
2022/10/06 08:46:56;;;;;;;;;7.00;5.00;;;;;16.57;52.22;102698.06;5018254;28;45957;-55
2022/10/06 08:49:24;;;;;;;;;6.00;5.25;;;;;16.66;52.24;102691.78;5019798;28;45327;-54
2022/10/06 08:52:05;;;;;;;;;6.25;4.50;;;;;16.75;52.43;102697.00;5019453;28;45525;-54
2022/10/06 08:54:48;;;;;;;;;6.00;5.50;;;;;16.85;52.38;102700.47;5018414;28;48231;-53
2022/10/06 08:57:27;;;;;;;;;8.50;3.50;;;;;16.95;52.12;102706.59;5019839;28;45164;-54
2022/10/06 08:59:52;;;;;;;;;11.75;4.50;;;;;17.03;51.99;102708.28;5021608;28;45334;-54
2022/10/06 09:02:40;;;;;;;;;6.25;3.75;;;;;17.13;52.10;102717.06;5028892;28;45382;-54
2022/10/06 09:05:10;;;;;;;;;6.50;4.50;;;;;17.23;52.27;102712.50;5019733;28;45268;-54
2022/10/06 09:07:52;;;;;;;;;10.75;5.00;;;;;17.32;51.96;102714.16;5019505;28;45311;-53
2022/10/06 09:10:26;;;;;;;;;5.00;3.50;;;;;17.40;51.69;102717.63;5019808;28;45233;-55
2022/10/06 09:13:16;;;;;;;;;6.00;3.50;;;;;17.51;52.21;102715.72;5017797;28;45250;-54
2022/10/06 09:15:49;;;;;;;;;5.00;3.00;;;;;17.59;52.13;102712.97;5019501;28;45541;-54
2022/10/06 09:18:23;;;;;;;;;7.25;5.00;;;;;17.70;51.91;102720.81;5018925;28;45343;-54
2022/10/06 09:20:54;;;;;;;;;3.75;2.50;;;;;17.81;52.22;102718.00;5019290;28;45455;-55
2022/10/06 09:24:04;;;;;;;;;4.75;3.00;;;;;17.92;51.86;102718.75;5018245;28;45273;-55
2022/10/06 09:26:11;;;;;;;;;3.75;2.75;;;;;18.06;51.80;102720.38;5012094;28;45292;-54
2022/10/06 09:28:36;;;;;;;;;4.25;1.50;;;;;18.14;52.28;102714.03;5019207;28;45349;-54
2022/10/06 09:31:02;;;;;;;;;2.25;1.00;;;;;18.27;51.83;102713.88;5019618;28;45273;-53
2022/10/06 09:33:38;;;;;;;;;4.00;3.25;;;;;18.39;52.17;102718.09;5019385;28;45297;-53
2022/10/06 09:36:08;;;;;;;;;4.50;1.25;;;;;18.49;51.49;102720.59;5018941;28;46017;-54
2022/10/06 09:38:53;;;;;;;;;4.50;2.00;;;;;18.61;51.82;102716.84;5022289;28;45411;-54
2022/10/06 09:41:36;;;;;;;;;3.25;2.00;;;;;18.72;52.06;102721.16;5022920;28;45289;-53
2022/10/06 09:44:20;;;;;;;;;3.75;1.50;;;;;18.83;51.54;102714.72;5022622;28;45199;-54
2022/10/06 09:46:45;;;;;;;;;8.75;3.00;;;;;18.95;51.54;102718.09;5022369;28;46400;-54
2022/10/06 09:49:16;;;;;;;;;3.75;3.00;;;;;19.06;51.53;102716.09;5022776;28;45247;-54
2022/10/06 09:52:00;;;;;;;;;3.50;3.25;;;;;19.16;51.40;102724.81;5022554;28;45314;-53
2022/10/06 09:54:27;;;;;;;;;6.25;3.75;;;;;19.23;51.58;102718.47;5022162;28;45320;-54
2022/10/06 09:56:54;;;;;;;;;2.25;1.25;;;;;19.35;51.00;102717.34;5022254;28;46183;-55
2022/10/06 09:59:36;;;;;;;;;6.25;3.00;;;;;19.45;51.19;102721.56;5022405;28;45237;-54
2022/10/06 10:02:03;;;;;;;;;5.00;4.00;;;;;19.54;50.68;102722.31;5033653;28;45367;-51
2022/10/06 10:04:39;;;;;;;;;5.50;3.00;;;;;19.62;50.97;102715.91;5022592;28;45166;-56
2022/10/06 10:07:14;;;;;;;;;1.00;1.00;;;;;19.72;50.90;102715.69;5022477;28;46430;-55
2022/10/06 10:09:40;;;;;;;;;2.50;2.00;;;;;19.80;51.10;102717.28;5022297;28;46427;-53
2022/10/06 10:12:24;;;;;;;;;5.50;2.75;;;;;19.91;50.56;102706.41;5022429;28;45372;-53
2022/10/06 10:15:02;;;;;;;;;4.25;3.00;;;;;20.03;50.71;102713.25;5022443;28;45167;-56
2022/10/06 10:17:36;;;;;;;;;4.75;3.00;;;;;20.15;50.59;102709.44;5020548;28;48116;-55
2022/10/06 10:20:16;;;;;;;;;6.75;3.75;;;;;20.24;50.56;102708.34;5022076;28;45402;-55
2022/10/06 10:22:45;;;;;;;;;3.00;2.50;;;;;20.36;50.40;102708.03;5022109;28;46003;-54
2022/10/06 10:25:23;;;;;;;;;4.25;3.50;;;;;20.47;50.29;102707.78;5020907;28;45251;-53
2022/10/06 10:28:15;;;;;;;;;4.25;2.25;;;;;20.59;50.46;102710.16;5021839;28;46394;-53
2022/10/06 10:30:56;;;;;;;;;7.00;4.25;;;;;20.70;49.92;102707.19;5018727;28;45466;-54
2022/10/06 10:33:49;;;;;;;;;6.00;1.00;;;;;20.82;50.18;102702.47;5015887;28;45355;-54
2022/10/06 10:36:16;;;;;;;;;5.75;2.00;;;;;20.94;50.31;102700.38;4978604;28;45708;-54
2022/10/06 10:38:44;;;;;;;;;3.50;2.00;;;;;21.05;49.78;102702.72;5018640;28;45463;-52
2022/10/06 10:41:22;;;;;;;;;3.00;3.00;;;;;21.18;49.76;102694.38;5022028;28;45292;-54
2022/10/06 10:44:09;;;;;;;;;6.00;2.75;;;;;21.31;49.87;102693.13;5021915;28;45151;-53
2022/10/06 10:46:43;;;;;;;;;6.00;4.00;;;;;21.45;49.59;102706.09;5021775;28;45340;-53
2022/10/06 10:49:17;;;;;;;;;2.75;2.50;;;;;21.57;49.65;102691.50;5020319;28;46297;-52
2022/10/06 10:52:10;;;;;;;;;3.75;1.00;;;;;21.72;49.60;102698.19;5021360;28;45271;-54
2022/10/06 10:54:58;;;;;;;;;2.00;2.00;;;;;21.86;49.30;102693.31;5013860;28;45274;-54
2022/10/06 10:57:36;;;;;;;;;6.50;2.00;;;;;22.03;49.06;102697.25;5020945;28;45446;-52
2022/10/06 11:00:21;;;;;;;;;2.75;2.00;;;;;22.19;49.16;102684.25;5024549;28;46729;-53
2022/10/06 11:02:48;;;;;;;;;4.50;2.00;;;;;22.32;49.00;102685.56;5026423;28;45451;-55
2022/10/06 11:05:25;;;;;;;;;5.00;2.00;;;;;22.47;48.62;102688.72;5021511;28;45296;-54
2022/10/06 11:08:02;;;;;;;;;6.00;3.00;;;;;22.62;48.42;102679.28;5021357;28;45491;-55
2022/10/06 11:10:41;;;;;;;;;2.75;0.00;;;;;22.75;48.25;102690.44;5019601;28;47177;-54
2022/10/06 11:13:19;;;;;;;;;2.50;2.50;;;;;22.91;48.25;102688.97;5020178;28;45348;-55
2022/10/06 11:15:53;;;;;;;;;4.50;3.00;;;;;23.04;47.86;102687.59;5021385;28;45442;-56
2022/10/06 11:18:42;;;;;;;;;4.25;3.00;;;;;23.16;47.95;102686.31;5021104;28;45456;-56
2022/10/06 11:21:11;;;;;;;;;2.00;2.00;;;;;23.28;48.02;102697.50;5020876;28;46541;-55
2022/10/06 11:23:48;;;;;;;;;2.75;2.25;;;;;23.36;47.89;102696.28;5021162;28;45359;-56
2022/10/06 11:26:23;;;;;;;;;4.25;2.00;;;;;23.43;47.51;102694.25;5021307;28;45468;-56
2022/10/06 11:29:04;;;;;;;;;5.75;3.00;;;;;23.50;47.41;102692.22;5021018;28;45298;-56
2022/10/06 11:31:38;;;;;;;;;4.50;3.25;;;;;23.55;47.58;102690.22;5021206;28;46687;-55
2022/10/06 11:34:05;;;;;;;;;2.00;2.00;;;;;23.59;47.11;102685.63;5021056;28;45365;-55
2022/10/06 11:37:00;;;;;;;;;2.50;1.25;;;;;23.69;47.34;102687.88;5019501;28;45262;-53
2022/10/06 11:40:23;;;;;;;;;2.25;1.25;;;;;23.84;47.03;102690.91;5020976;28;45387;-54
2022/10/06 11:42:54;;;;;;;;;2.00;2.00;;;;;24.04;47.08;102683.88;4959562;28;46151;-53
2022/10/06 11:45:29;;;;;;;;;1.75;1.75;;;;;24.24;47.07;102672.31;4959631;28;45384;-53
2022/10/06 11:48:06;;;;;;;;;3.75;1.00;;;;;24.49;47.46;102673.03;4993729;28;45451;-53
2022/10/06 11:50:32;;;;;;;;;2.25;1.00;;;;;24.76;47.46;102671.94;5008425;28;45422;-53
2022/10/06 11:52:57;;;;;;;;;6.00;4.00;;;;;25.01;47.54;102665.47;5020582;28;45913;-56